x

Buoy E01 - Central Maine Shelf (44032) Wave Buoy

6:04 - Sun 30th Apr 2017 All times are EDT. -4 hours from GMT.

  • Sig Wave height 2.3ft
  • Peak Period 8s
  • Wind
    11mph, 13mph gusts
  • Sea Temp 42°f
  • Ar Temp 43°f
  • Sea Pressure 1024.8mb
  • Buoy E01 - Central Maine Shelf
  • Buoy E01 - Central Maine Shelf

More Historic Weather Station data

Upgrade to MSW Pro to gain access to the past 30 days of data for over 8000 Wavebouys and Weather Stations around the globe.

Join Pro

Comparision Forecast

View Surf forecast
   
Dom 04/30 6:04 2.5ft 8s 11 13 mph 1024.8mb 42f 43f
5:04 2.5ft 8s 13 16 mph 1024.9mb 42f 43f
4:04 2.5ft 6s 13 18 mph 1024.4mb 42f 43f
3:04 2.5ft 6s 11 13 mph 1024.1mb 42f 42f
2:04 2ft 6s 11 13 mph 1025.5mb 43f 42f
1:04 2ft 6s 9 11 mph 1025.4mb 43f 42f
12:04 1.6ft 6s 9
mph
1025.7mb 43f 42f
11:04 2ft 8s 9
mph
1025.9mb 43f 42f
10:04 2.5ft 8s 7 9 mph 1025.8mb 43f 43f
9:04 2.5ft 3s 13 16 mph 1025.9mb 42f 43f
8:04 2.5ft 8s 16 18 mph 1024.8mb 42f 42f
7:04 2.5ft 8s 18 22 mph 1024.1mb 42f 42f
6:04 3ft 3s 20 25 mph 1023.3mb 42f 42f
5:04 3ft 4s 25 29 mph 1022.4mb 42f 43f
4:04 4ft 4s 20 25 mph 1021.6mb 42f 44f
3:04 4ft 4s 22 27 mph 1020.1mb 43f 45f
2:04 3.5ft 4s 16 22 mph 1017.9mb 43f 47f
1:04 3.5ft 4s 25 31 mph 1016.5mb 42f 49f
12:04 2.5ft 3s 22 31 mph 1014.9mb 41f 53f
Sáb 04/29 11:04 3.5ft 8s 18 20 mph 1013.6mb 41f 54f
10:04 3.5ft 8s 11 13 mph 1012.7mb 42f 51f
9:04 3.5ft 8s 9 11 mph 1010.7mb 42f 50f
8:04 3ft 8s 7 9 mph 1009.7mb 42f 49f
7:04 3ft 8s 11 13 mph 1008.5mb 43f 51f
6:04 3ft 8s 13 16 mph 1007.5mb 43f 51f
5:04 3.5ft 8s 7 9 mph 1007.8mb 44f 48f
4:04 3.5ft 8s 11 13 mph 1007.4mb 43f 49f
3:04 4ft 8s 13
mph
1007.8mb 43f 49f
2:04 3.5ft 6s 16 18 mph 1008.3mb 43f 49f
1:04 3.5ft 8s 9 11 mph 1008.7mb 43f 47f
12:04 4.5ft 8s 7
mph
1010mb 42f 49f
11:04 4ft 8s 11 13 mph 1011.9mb 42f 48f
10:04 4.5ft 8s 13
mph
1011.7mb 42f 47f
9:04 4ft 8s 9 11 mph 1013.1mb 41f 46f
8:04 4ft 8s 4 7 mph 1013.8mb 42f 46f
7:04 4ft 8s 7 9 mph 1013.8mb 42f 45f
6:04 3.5ft 8s 7 9 mph 1014.3mb 41f 45f
5:04 4ft 8s 4 7 mph 1013.9mb 42f 46f
4:04 3ft 8s 2 4 mph 1013.5mb 42f 46f
3:04 3ft 8s 11 22 mph 1014.3mb 42f 44f
2:04 3.5ft 11s 9 11 mph 1013.9mb 43f 43f
1:04 4ft 11s 4 7 mph 1013.8mb 42f 41f
12:04 4.5ft 8s  -  2 mph 1013.6mb 42f 44f
Sex 04/28 11:04 4.5ft 8s 2 4 mph 1013.8mb 41f 41f
10:04 5ft 8s 4 7 mph 1013.9mb 42f 42f
9:04 6ft 8s 4 7 mph 1013.9mb 41f 42f
8:04 5ft 8s 2 4 mph 1013.8mb 41f 43f
7:04 4.5ft 8s 4 7 mph 1013.2mb 42f 43f
6:04 4ft 8s 4 7 mph 1013.1mb 42f 43f
5:04 4ft 8s 7 9 mph 1013.1mb 42f 44f
4:04 4.5ft 11s 4
mph
1013.3mb 42f 45f
3:04 4ft 11s 4
mph
1013.4mb 42f 44f
2:04 4.5ft 11s 2 4 mph 1013.8mb 43f 44f
1:04 5ft 11s 2 4 mph 1014.1mb 43f 43f
12:04 4.5ft 11s 4 7 mph 1013.9mb 43f 43f
11:04 5ft 11s 2 4 mph 1014.5mb 43f 45f
10:04 5ft 11s 2 4 mph 1015.1mb 42f 43f
9:04 6ft 11s 2 4 mph 1015.2mb 42f 43f
8:04 6ft 11s 2 4 mph 1015.1mb 42f 42f
7:04 7ft 11s 9
mph
1014.6mb 42f 43f
6:04 6.5ft 11s 9 11 mph 1014.4mb 41f 44f
4:04 6ft 11s 7 9 mph 1014.2mb 42f 43f
3:04 5.5ft 11s 7
mph
1013.9mb 42f 42f
2:04 6ft 11s 4 7 mph 1013.9mb 42f 42f
1:04 6ft 11s 4 7 mph 1014.1mb 42f 42f
12:04 6ft 11s 2 4 mph 1014.1mb 42f 42f
Qui 04/27 11:04 5ft 11s 2
mph
1014.4mb 42f 42f
10:04 5.5ft 11s 2 4 mph 1014.3mb 42f 42f
9:04 6.5ft 11s 4 7 mph 1014.2mb 42f 42f
8:04 9ft 11s 16 22 mph 1013.4mb 42f 42f
7:04 7.5ft 11s 9 11 mph 1013mb 42f 42f
6:04 7ft 11s 9 11 mph 1013.5mb 42f 42f
5:04 8ft 11s 7 9 mph 1013.8mb 42f 41f
4:04 7ft 11s 7 9 mph 1013.6mb 42f 41f
3:04 6ft 11s 7
mph
1013.9mb 42f 42f
2:04 6ft 11s 9
mph
1013.7mb 42f 42f
1:04 5.5ft 11s 9 11 mph 1013.3mb 42f 42f
12:04 6ft 11s 9 13 mph 1013.5mb 42f 42f
11:04 7ft 11s 9 11 mph 1013.8mb 42f 42f
10:04 7.5ft 11s 7 9 mph 1013.9mb 42f 42f
9:04 9ft 11s 9 11 mph 1013.2mb 42f 42f
8:04 7.5ft 8s 9 11 mph 1013.6mb 41f 42f
7:04 8.5ft 11s 11 13 mph 1013.2mb 41f 42f
6:04 9ft 11s 7 9 mph 1012.6mb 41f 42f
5:04 8.5ft 11s 11
mph
1012.3mb 41f 42f
4:04 10ft 11s 9
mph
1012.3mb 41f 42f
3:04 8ft 11s 4 7 mph 1012.3mb 41f 42f
2:04 7.5ft 11s 4
mph
1012.2mb 41f 43f
1:04 6.5ft 11s 11 16 mph 1011.8mb 41f 44f